Hilly, Louisiana
Current Conditions -  °F | °C
As of 1:15 PM on Friday 24 Oct 2014 (Local Time) from KRSN Reporting Station
Clear Clear  
Wind Chill: 70°   Ceiling: Unl
Heat Index: 70°   Visibility: 10mi
Dew Point: 48°   Wind: 6mph
Humidity: 46%   Direction: 30°NNE
Pressure: 30.18"   Gusts: NA
Location:  32.6988°N, 92.6981°W
Report Text: KRSN 241815Z AUTO 03005KT 10SM CLR 21/09 A3018 RMK AO2 T02090089
Loading
Personal Weather Stations






























Interactive Weather Map New forecast layout! Learn more

10-Day Weather Forecast

Advertisements
Track Severe Weather on mobile